Etusivu
METAR-TAF:

METAR-TAF

Lentoasemat :

Salinas, Ecuador

Leveyspiiri: 02-12-18S, Pituuspiiri: 080-59-20W, korkeus merenpinnasta: 5 m

Tämänhetkinen sää

Tämä raportti tehtiin 1 tunti ja 44 minuuttia sitten, kello 22.00 UTC
Tuuli 9 kn etelästä/lounaasta
Lämpötila 24°C
Kosteus 78%
Ilmanpaine 1011 hPa
Näkyvyys 10 km tai enemmän
Hajanaisia pilviä 700 ft:n korkeudessa
Hajanaisia pilviä 1300 ft:n korkeudessa

METAR: SESA 282200Z 21009KT 9999 SCT007 SCT013 24/20 Q1011 RMK A2987

Aika: 18:44 (23:44 UTC)


TAF: puuttuu

Säähavainnot ja -ennusteet yli 4000 lentoasemalta (METAR- ja TAF-raportit).

Käytössä olevat sääasemat on merkitty karttaan keltaisilla ja punaisilla pisteillä.

Aseta hiiri pisteen päälle nähdäksesi sääaseman nimen.

Klikkaa sitten nähdäksesi säähavainnot ja -ennusteet.

Kartan vaihtaminen: klikkaa mustalla rastilla varustettuja vihreitä pisteitä, niin voit zoomata sisään; viivalla varustettua vihreää pistettä, niin voit zoomata ulos tai vihreitä nuolia, niin pääset viereisille kartoille.


METAR-TAF: